sensor_id;sensor_type;location;lat;lon;timestamp;temperature;humidity
52381;DHT22;38310;52.796;6.942;2023-08-06T00:00:24;14.30;99.90
52381;DHT22;38310;52.796;6.942;2023-08-06T00:02:50;14.30;99.90
52381;DHT22;38310;52.796;6.942;2023-08-06T00:05:16;14.30;99.90
52381;DHT22;38310;52.796;6.942;2023-08-06T00:07:50;14.30;99.90
52381;DHT22;38310;52.796;6.942;2023-08-06T00:10:16;14.30;99.90
52381;DHT22;38310;52.796;6.942;2023-08-06T00:12:43;14.30;99.90
52381;DHT22;38310;52.796;6.942;2023-08-06T00:15:09;14.30;99.90
52381;DHT22;38310;52.796;6.942;2023-08-06T00:17:35;14.30;99.90
52381;DHT22;38310;52.796;6.942;2023-08-06T00:20:02;14.30;99.90
52381;DHT22;38310;52.796;6.942;2023-08-06T00:22:35;14.20;99.90
52381;DHT22;38310;52.796;6.942;2023-08-06T00:25:02;14.20;99.90
52381;DHT22;38310;52.796;6.942;2023-08-06T00:27:27;14.20;99.90
52381;DHT22;38310;52.796;6.942;2023-08-06T00:29:53;14.20;99.90
52381;DHT22;38310;52.796;6.942;2023-08-06T00:32:19;14.20;99.90
52381;DHT22;38310;52.796;6.942;2023-08-06T00:34:45;14.20;99.90
52381;DHT22;38310;52.796;6.942;2023-08-06T00:37:11;14.20;99.90
52381;DHT22;38310;52.796;6.942;2023-08-06T00:39:37;14.20;99.90
52381;DHT22;38310;52.796;6.942;2023-08-06T00:42:03;14.20;99.90
52381;DHT22;38310;52.796;6.942;2023-08-06T00:44:29;14.20;99.90
52381;DHT22;38310;52.796;6.942;2023-08-06T00:46:55;14.20;99.90
52381;DHT22;38310;52.796;6.942;2023-08-06T00:49:21;14.20;99.90
52381;DHT22;38310;52.796;6.942;2023-08-06T00:51:47;14.20;99.90
52381;DHT22;38310;52.796;6.942;2023-08-06T00:54:13;14.10;99.90
52381;DHT22;38310;52.796;6.942;2023-08-06T00:56:40;14.20;99.90
52381;DHT22;38310;52.796;6.942;2023-08-06T00:59:07;14.10;99.90
52381;DHT22;38310;52.796;6.942;2023-08-06T01:01:33;14.20;99.90
52381;DHT22;38310;52.796;6.942;2023-08-06T01:03:59;14.10;99.90
52381;DHT22;38310;52.796;6.942;2023-08-06T01:06:47;14.10;99.90
52381;DHT22;38310;52.796;6.942;2023-08-06T01:09:43;14.10;99.90
52381;DHT22;38310;52.796;6.942;2023-08-06T01:12:47;14.10;99.90
52381;DHT22;38310;52.796;6.942;2023-08-06T01:17:45;14.10;99.90
52381;DHT22;38310;52.796;6.942;2023-08-06T01:20:11;14.10;99.90
52381;DHT22;38310;52.796;6.942;2023-08-06T01:22:36;14.20;99.90
52381;DHT22;38310;52.796;6.942;2023-08-06T01:25:02;14.20;99.90
52381;DHT22;38310;52.796;6.942;2023-08-06T01:27:50;14.20;99.90
52381;DHT22;38310;52.796;6.942;2023-08-06T01:30:18;14.20;99.90
52381;DHT22;38310;52.796;6.942;2023-08-06T01:32:49;14.20;99.90
52381;DHT22;38310;52.796;6.942;2023-08-06T01:35:16;14.20;99.90
52381;DHT22;38310;52.796;6.942;2023-08-06T01:37:43;14.20;99.90
52381;DHT22;38310;52.796;6.942;2023-08-06T01:40:13;14.20;99.90
52381;DHT22;38310;52.796;6.942;2023-08-06T01:42:39;14.20;99.90
52381;DHT22;38310;52.796;6.942;2023-08-06T01:45:06;14.20;99.90
52381;DHT22;38310;52.796;6.942;2023-08-06T01:47:33;14.20;99.90
52381;DHT22;38310;52.796;6.942;2023-08-06T01:49:59;14.20;99.90
52381;DHT22;38310;52.796;6.942;2023-08-06T01:52:24;14.20;99.90
52381;DHT22;38310;52.796;6.942;2023-08-06T01:54:50;14.20;99.90
52381;DHT22;38310;52.796;6.942;2023-08-06T01:57:16;14.20;99.90
52381;DHT22;38310;52.796;6.942;2023-08-06T01:59:41;14.20;99.90
52381;DHT22;38310;52.796;6.942;2023-08-06T02:02:07;14.20;99.90
52381;DHT22;38310;52.796;6.942;2023-08-06T02:04:33;14.20;99.90
52381;DHT22;38310;52.796;6.942;2023-08-06T02:06:58;14.10;99.90
52381;DHT22;38310;52.796;6.942;2023-08-06T02:09:24;14.10;99.90
52381;DHT22;38310;52.796;6.942;2023-08-06T02:11:50;14.20;99.90
52381;DHT22;38310;52.796;6.942;2023-08-06T02:14:15;14.10;99.90
52381;DHT22;38310;52.796;6.942;2023-08-06T02:16:41;14.10;99.90
52381;DHT22;38310;52.796;6.942;2023-08-06T02:19:07;14.10;99.90
52381;DHT22;38310;52.796;6.942;2023-08-06T02:21:33;14.20;99.90
52381;DHT22;38310;52.796;6.942;2023-08-06T02:23:58;14.10;99.90
52381;DHT22;38310;52.796;6.942;2023-08-06T02:26:24;14.10;99.90
52381;DHT22;38310;52.796;6.942;2023-08-06T02:28:50;14.10;99.90
52381;DHT22;38310;52.796;6.942;2023-08-06T02:31:15;14.10;99.90
52381;DHT22;38310;52.796;6.942;2023-08-06T02:33:41;14.10;99.90
52381;DHT22;38310;52.796;6.942;2023-08-06T02:36:07;14.10;99.90
52381;DHT22;38310;52.796;6.942;2023-08-06T02:38:32;14.10;99.90
52381;DHT22;38310;52.796;6.942;2023-08-06T02:40:58;14.10;99.90
52381;DHT22;38310;52.796;6.942;2023-08-06T02:43:24;14.10;99.90
52381;DHT22;38310;52.796;6.942;2023-08-06T02:45:50;14.10;99.90
52381;DHT22;38310;52.796;6.942;2023-08-06T02:48:15;14.10;99.90
52381;DHT22;38310;52.796;6.942;2023-08-06T02:50:43;14.10;99.90
52381;DHT22;38310;52.796;6.942;2023-08-06T02:53:10;14.10;99.90
52381;DHT22;38310;52.796;6.942;2023-08-06T02:55:36;14.10;99.90
52381;DHT22;38310;52.796;6.942;2023-08-06T02:58:01;14.10;99.90
52381;DHT22;38310;52.796;6.942;2023-08-06T03:00:27;14.10;99.90
52381;DHT22;38310;52.796;6.942;2023-08-06T03:02:53;14.10;99.90
52381;DHT22;38310;52.796;6.942;2023-08-06T03:05:19;14.10;99.90
52381;DHT22;38310;52.796;6.942;2023-08-06T03:07:45;14.00;99.90
52381;DHT22;38310;52.796;6.942;2023-08-06T03:10:11;14.00;99.90
52381;DHT22;38310;52.796;6.942;2023-08-06T03:12:36;14.00;99.90
52381;DHT22;38310;52.796;6.942;2023-08-06T03:15:02;14.00;99.90
52381;DHT22;38310;52.796;6.942;2023-08-06T03:17:28;14.00;99.90
52381;DHT22;38310;52.796;6.942;2023-08-06T03:19:54;14.00;99.90
52381;DHT22;38310;52.796;6.942;2023-08-06T03:22:19;13.90;99.90
52381;DHT22;38310;52.796;6.942;2023-08-06T03:24:45;13.90;99.90
52381;DHT22;38310;52.796;6.942;2023-08-06T03:27:11;13.80;99.90
52381;DHT22;38310;52.796;6.942;2023-08-06T03:29:36;13.80;99.90
52381;DHT22;38310;52.796;6.942;2023-08-06T03:32:02;13.80;99.90
52381;DHT22;38310;52.796;6.942;2023-08-06T03:34:28;13.80;99.90
52381;DHT22;38310;52.796;6.942;2023-08-06T03:36:53;13.80;99.90
52381;DHT22;38310;52.796;6.942;2023-08-06T03:39:19;13.70;99.90
52381;DHT22;38310;52.796;6.942;2023-08-06T03:41:45;13.70;99.90
52381;DHT22;38310;52.796;6.942;2023-08-06T03:44:10;13.70;99.90
52381;DHT22;38310;52.796;6.942;2023-08-06T03:46:36;13.70;99.90
52381;DHT22;38310;52.796;6.942;2023-08-06T03:49:02;13.70;99.90
52381;DHT22;38310;52.796;6.942;2023-08-06T03:51:28;13.70;99.90
52381;DHT22;38310;52.796;6.942;2023-08-06T03:53:53;13.70;99.90
52381;DHT22;38310;52.796;6.942;2023-08-06T03:56:19;13.70;99.90
52381;DHT22;38310;52.796;6.942;2023-08-06T03:58:45;13.70;99.90
52381;DHT22;38310;52.796;6.942;2023-08-06T04:01:11;13.80;99.90
52381;DHT22;38310;52.796;6.942;2023-08-06T04:03:36;13.70;99.90
52381;DHT22;38310;52.796;6.942;2023-08-06T04:06:06;13.70;99.90
52381;DHT22;38310;52.796;6.942;2023-08-06T04:08:32;13.80;99.90
52381;DHT22;38310;52.796;6.942;2023-08-06T04:10:58;13.70;99.90
52381;DHT22;38310;52.796;6.942;2023-08-06T04:13:24;13.70;99.90
52381;DHT22;38310;52.796;6.942;2023-08-06T04:15:49;13.70;99.90
52381;DHT22;38310;52.796;6.942;2023-08-06T04:18:15;13.70;99.90
52381;DHT22;38310;52.796;6.942;2023-08-06T04:20:45;13.70;99.90
52381;DHT22;38310;52.796;6.942;2023-08-06T04:23:11;13.70;99.90
52381;DHT22;38310;52.796;6.942;2023-08-06T04:25:37;13.80;99.90
52381;DHT22;38310;52.796;6.942;2023-08-06T04:28:03;13.80;99.90
52381;DHT22;38310;52.796;6.942;2023-08-06T04:30:29;13.70;99.90
52381;DHT22;38310;52.796;6.942;2023-08-06T04:32:57;13.70;99.90
52381;DHT22;38310;52.796;6.942;2023-08-06T04:35:23;13.80;99.90
52381;DHT22;38310;52.796;6.942;2023-08-06T04:37:49;13.70;99.90
52381;DHT22;38310;52.796;6.942;2023-08-06T04:40:15;13.70;99.90
52381;DHT22;38310;52.796;6.942;2023-08-06T04:42:41;13.70;99.90
52381;DHT22;38310;52.796;6.942;2023-08-06T04:45:07;13.70;99.90
52381;DHT22;38310;52.796;6.942;2023-08-06T04:47:32;13.70;99.90
52381;DHT22;38310;52.796;6.942;2023-08-06T04:49:58;13.80;99.90
52381;DHT22;38310;52.796;6.942;2023-08-06T04:52:24;13.80;99.90
52381;DHT22;38310;52.796;6.942;2023-08-06T04:54:53;13.80;99.90
52381;DHT22;38310;52.796;6.942;2023-08-06T04:57:19;13.90;99.90
52381;DHT22;38310;52.796;6.942;2023-08-06T04:59:45;13.90;99.90
52381;DHT22;38310;52.796;6.942;2023-08-06T05:02:11;13.90;99.90
52381;DHT22;38310;52.796;6.942;2023-08-06T05:04:36;14.00;99.90
52381;DHT22;38310;52.796;6.942;2023-08-06T05:07:03;14.00;99.90
52381;DHT22;38310;52.796;6.942;2023-08-06T05:09:29;13.50;99.90
52381;DHT22;38310;52.796;6.942;2023-08-06T05:11:54;14.10;99.90
52381;DHT22;38310;52.796;6.942;2023-08-06T05:14:20;14.10;99.90
52381;DHT22;38310;52.796;6.942;2023-08-06T05:16:46;14.10;99.90
52381;DHT22;38310;52.796;6.942;2023-08-06T05:19:11;14.10;99.90
52381;DHT22;38310;52.796;6.942;2023-08-06T05:21:37;14.10;99.90
52381;DHT22;38310;52.796;6.942;2023-08-06T05:24:03;14.10;99.90
52381;DHT22;38310;52.796;6.942;2023-08-06T05:26:29;14.10;99.90
52381;DHT22;38310;52.796;6.942;2023-08-06T05:28:54;14.10;99.90
52381;DHT22;38310;52.796;6.942;2023-08-06T05:31:20;14.10;99.90
52381;DHT22;38310;52.796;6.942;2023-08-06T05:33:46;14.20;99.90
52381;DHT22;38310;52.796;6.942;2023-08-06T05:36:12;14.20;99.90
52381;DHT22;38310;52.796;6.942;2023-08-06T05:38:37;14.20;99.90
52381;DHT22;38310;52.796;6.942;2023-08-06T05:41:03;14.20;99.90
52381;DHT22;38310;52.796;6.942;2023-08-06T05:43:29;14.30;99.90
52381;DHT22;38310;52.796;6.942;2023-08-06T05:45:56;14.30;99.90
52381;DHT22;38310;52.796;6.942;2023-08-06T05:48:22;14.30;99.90
52381;DHT22;38310;52.796;6.942;2023-08-06T05:50:51;14.30;99.90
52381;DHT22;38310;52.796;6.942;2023-08-06T05:53:16;14.40;99.90
52381;DHT22;38310;52.796;6.942;2023-08-06T05:55:42;14.40;99.90
52381;DHT22;38310;52.796;6.942;2023-08-06T05:58:08;14.50;99.90
52381;DHT22;38310;52.796;6.942;2023-08-06T06:00:34;14.50;99.90
52381;DHT22;38310;52.796;6.942;2023-08-06T06:03:00;14.60;99.90
52381;DHT22;38310;52.796;6.942;2023-08-06T06:05:26;14.70;99.90
52381;DHT22;38310;52.796;6.942;2023-08-06T06:07:52;14.80;99.90
52381;DHT22;38310;52.796;6.942;2023-08-06T06:10:17;14.90;99.90
52381;DHT22;38310;52.796;6.942;2023-08-06T06:12:43;15.00;99.90
52381;DHT22;38310;52.796;6.942;2023-08-06T06:15:09;15.10;99.90
52381;DHT22;38310;52.796;6.942;2023-08-06T06:17:35;15.10;99.90
52381;DHT22;38310;52.796;6.942;2023-08-06T06:20:01;15.20;99.90
52381;DHT22;38310;52.796;6.942;2023-08-06T06:22:29;15.30;99.90
52381;DHT22;38310;52.796;6.942;2023-08-06T06:24:55;15.30;99.90
52381;DHT22;38310;52.796;6.942;2023-08-06T06:27:21;15.40;99.90
52381;DHT22;38310;52.796;6.942;2023-08-06T06:29:47;15.40;99.90
52381;DHT22;38310;52.796;6.942;2023-08-06T06:32:12;15.40;99.90
52381;DHT22;38310;52.796;6.942;2023-08-06T06:34:38;15.50;99.90
52381;DHT22;38310;52.796;6.942;2023-08-06T06:37:04;15.50;99.90
52381;DHT22;38310;52.796;6.942;2023-08-06T06:39:30;15.40;99.90
52381;DHT22;38310;52.796;6.942;2023-08-06T06:41:55;15.50;99.90
52381;DHT22;38310;52.796;6.942;2023-08-06T06:44:21;15.50;99.90
52381;DHT22;38310;52.796;6.942;2023-08-06T06:46:47;15.60;99.90
52381;DHT22;38310;52.796;6.942;2023-08-06T06:49:12;15.60;99.90
52381;DHT22;38310;52.796;6.942;2023-08-06T06:51:38;15.60;99.90
52381;DHT22;38310;52.796;6.942;2023-08-06T06:54:04;15.60;99.90
52381;DHT22;38310;52.796;6.942;2023-08-06T06:56:30;15.70;99.90
52381;DHT22;38310;52.796;6.942;2023-08-06T06:58:55;15.70;99.90
52381;DHT22;38310;52.796;6.942;2023-08-06T07:01:21;15.70;99.90
52381;DHT22;38310;52.796;6.942;2023-08-06T07:03:47;15.70;99.90
52381;DHT22;38310;52.796;6.942;2023-08-06T07:06:13;15.80;99.90
52381;DHT22;38310;52.796;6.942;2023-08-06T07:08:38;15.80;99.90
52381;DHT22;38310;52.796;6.942;2023-08-06T07:11:06;15.90;99.90
52381;DHT22;38310;52.796;6.942;2023-08-06T07:13:33;15.90;99.90
52381;DHT22;38310;52.796;6.942;2023-08-06T07:15:59;16.00;99.90
52381;DHT22;38310;52.796;6.942;2023-08-06T07:18:25;16.10;99.90
52381;DHT22;38310;52.796;6.942;2023-08-06T07:20:51;16.20;99.90
52381;DHT22;38310;52.796;6.942;2023-08-06T07:23:20;16.30;99.90
52381;DHT22;38310;52.796;6.942;2023-08-06T07:25:46;16.30;99.90
52381;DHT22;38310;52.796;6.942;2023-08-06T07:28:13;16.40;99.90
52381;DHT22;38310;52.796;6.942;2023-08-06T07:30:40;16.40;99.90
52381;DHT22;38310;52.796;6.942;2023-08-06T07:33:06;16.40;99.90
52381;DHT22;38310;52.796;6.942;2023-08-06T07:35:32;16.50;99.90
52381;DHT22;38310;52.796;6.942;2023-08-06T07:37:57;16.40;99.90
52381;DHT22;38310;52.796;6.942;2023-08-06T07:40:23;16.50;99.90
52381;DHT22;38310;52.796;6.942;2023-08-06T07:42:49;16.50;99.90
52381;DHT22;38310;52.796;6.942;2023-08-06T07:45:15;16.50;99.90
52381;DHT22;38310;52.796;6.942;2023-08-06T07:47:41;16.50;99.90
52381;DHT22;38310;52.796;6.942;2023-08-06T07:50:08;16.50;99.90
52381;DHT22;38310;52.796;6.942;2023-08-06T07:52:34;16.50;99.90
52381;DHT22;38310;52.796;6.942;2023-08-06T07:55:00;16.50;99.90
52381;DHT22;38310;52.796;6.942;2023-08-06T07:57:27;16.60;99.90
52381;DHT22;38310;52.796;6.942;2023-08-06T07:59:53;16.60;99.90
52381;DHT22;38310;52.796;6.942;2023-08-06T08:02:19;16.70;99.90
52381;DHT22;38310;52.796;6.942;2023-08-06T08:04:45;16.70;99.90
52381;DHT22;38310;52.796;6.942;2023-08-06T08:07:13;16.70;99.90
52381;DHT22;38310;52.796;6.942;2023-08-06T08:09:38;16.80;99.90
52381;DHT22;38310;52.796;6.942;2023-08-06T08:12:04;16.80;99.90
52381;DHT22;38310;52.796;6.942;2023-08-06T08:14:30;17.00;99.90
52381;DHT22;38310;52.796;6.942;2023-08-06T08:17:01;17.00;99.90
52381;DHT22;38310;52.796;6.942;2023-08-06T08:19:28;17.20;99.90
52381;DHT22;38310;52.796;6.942;2023-08-06T08:21:54;17.20;99.90
52381;DHT22;38310;52.796;6.942;2023-08-06T08:24:20;17.20;99.90
52381;DHT22;38310;52.796;6.942;2023-08-06T08:26:49;17.40;99.90
52381;DHT22;38310;52.796;6.942;2023-08-06T08:29:15;17.70;99.90
52381;DHT22;38310;52.796;6.942;2023-08-06T08:31:41;18.00;99.90
52381;DHT22;38310;52.796;6.942;2023-08-06T08:34:06;18.10;99.90
52381;DHT22;38310;52.796;6.942;2023-08-06T08:36:32;18.10;99.90
52381;DHT22;38310;52.796;6.942;2023-08-06T08:38:58;18.30;99.90
52381;DHT22;38310;52.796;6.942;2023-08-06T08:41:23;18.50;99.90
52381;DHT22;38310;52.796;6.942;2023-08-06T08:43:50;18.60;99.90
52381;DHT22;38310;52.796;6.942;2023-08-06T08:46:18;18.70;99.90
52381;DHT22;38310;52.796;6.942;2023-08-06T08:48:44;18.70;99.90
52381;DHT22;38310;52.796;6.942;2023-08-06T08:51:11;18.90;99.90
52381;DHT22;38310;52.796;6.942;2023-08-06T08:53:39;19.00;99.90
52381;DHT22;38310;52.796;6.942;2023-08-06T08:56:05;19.10;99.90
52381;DHT22;38310;52.796;6.942;2023-08-06T08:58:32;19.20;99.90
52381;DHT22;38310;52.796;6.942;2023-08-06T09:00:58;19.20;99.90
52381;DHT22;38310;52.796;6.942;2023-08-06T09:03:24;19.30;99.90
52381;DHT22;38310;52.796;6.942;2023-08-06T09:05:53;19.40;99.90
52381;DHT22;38310;52.796;6.942;2023-08-06T09:08:23;19.50;99.90
52381;DHT22;38310;52.796;6.942;2023-08-06T09:10:49;19.60;99.90
52381;DHT22;38310;52.796;6.942;2023-08-06T09:13:16;19.80;99.90
52381;DHT22;38310;52.796;6.942;2023-08-06T09:15:42;19.90;99.90
52381;DHT22;38310;52.796;6.942;2023-08-06T09:18:10;19.90;99.90
52381;DHT22;38310;52.796;6.942;2023-08-06T09:20:40;19.80;99.90
52381;DHT22;38310;52.796;6.942;2023-08-06T09:23:10;19.80;99.90
52381;DHT22;38310;52.796;6.942;2023-08-06T09:25:39;20.00;99.90
52381;DHT22;38310;52.796;6.942;2023-08-06T09:28:06;20.30;99.90
52381;DHT22;38310;52.796;6.942;2023-08-06T09:30:34;20.50;99.90
52381;DHT22;38310;52.796;6.942;2023-08-06T09:33:00;20.80;99.90
52381;DHT22;38310;52.796;6.942;2023-08-06T09:35:29;21.20;99.90
52381;DHT22;38310;52.796;6.942;2023-08-06T09:37:56;21.40;99.90
52381;DHT22;38310;52.796;6.942;2023-08-06T09:40:29;21.20;99.90
52381;DHT22;38310;52.796;6.942;2023-08-06T09:42:56;21.20;99.90
52381;DHT22;38310;52.796;6.942;2023-08-06T09:45:22;21.30;99.90
52381;DHT22;38310;52.796;6.942;2023-08-06T09:47:56;21.60;99.90
52381;DHT22;38310;52.796;6.942;2023-08-06T09:50:22;21.90;99.90
52381;DHT22;38310;52.796;6.942;2023-08-06T09:52:49;22.20;99.90
52381;DHT22;38310;52.796;6.942;2023-08-06T09:55:16;22.50;99.90
52381;DHT22;38310;52.796;6.942;2023-08-06T09:57:42;22.90;99.90
52381;DHT22;38310;52.796;6.942;2023-08-06T10:00:09;23.10;99.90
52381;DHT22;38310;52.796;6.942;2023-08-06T10:02:37;23.30;99.90
52381;DHT22;38310;52.796;6.942;2023-08-06T10:05:05;23.50;99.90
52381;DHT22;38310;52.796;6.942;2023-08-06T10:07:31;23.90;99.90
52381;DHT22;38310;52.796;6.942;2023-08-06T10:09:58;24.40;99.90
52381;DHT22;38310;52.796;6.942;2023-08-06T10:12:24;24.10;99.90
52381;DHT22;38310;52.796;6.942;2023-08-06T10:14:53;23.90;99.90
52381;DHT22;38310;52.796;6.942;2023-08-06T10:17:21;23.90;99.90
52381;DHT22;38310;52.796;6.942;2023-08-06T10:19:48;24.00;99.90
52381;DHT22;38310;52.796;6.942;2023-08-06T10:22:15;23.90;99.90
52381;DHT22;38310;52.796;6.942;2023-08-06T10:24:54;24.00;99.90
52381;DHT22;38310;52.796;6.942;2023-08-06T10:32:57;25.20;99.90
52381;DHT22;38310;52.796;6.942;2023-08-06T10:38:14;25.00;99.90
52381;DHT22;38310;52.796;6.942;2023-08-06T10:40:41;25.10;99.90
52381;DHT22;38310;52.796;6.942;2023-08-06T10:43:07;25.20;99.90
52381;DHT22;38310;52.796;6.942;2023-08-06T10:45:35;25.10;99.90
52381;DHT22;38310;52.796;6.942;2023-08-06T10:48:02;24.70;99.90
52381;DHT22;38310;52.796;6.942;2023-08-06T10:50:27;24.50;99.90
52381;DHT22;38310;52.796;6.942;2023-08-06T10:52:53;24.40;99.90
52381;DHT22;38310;52.796;6.942;2023-08-06T10:55:37;24.70;99.90
52381;DHT22;38310;52.796;6.942;2023-08-06T10:58:03;25.00;99.90
52381;DHT22;38310;52.796;6.942;2023-08-06T11:00:29;24.70;99.90
52381;DHT22;38310;52.796;6.942;2023-08-06T11:02:55;24.40;99.90
52381;DHT22;38310;52.796;6.942;2023-08-06T11:05:21;24.30;99.90
52381;DHT22;38310;52.796;6.942;2023-08-06T11:07:47;24.00;99.90
52381;DHT22;38310;52.796;6.942;2023-08-06T11:10:14;23.90;99.90
52381;DHT22;38310;52.796;6.942;2023-08-06T11:12:40;23.90;99.90
52381;DHT22;38310;52.796;6.942;2023-08-06T11:15:06;24.50;99.90
52381;DHT22;38310;52.796;6.942;2023-08-06T11:17:34;24.80;99.90
52381;DHT22;38310;52.796;6.942;2023-08-06T11:20:04;25.30;99.90
52381;DHT22;38310;52.796;6.942;2023-08-06T11:22:30;26.10;99.90
52381;DHT22;38310;52.796;6.942;2023-08-06T11:24:57;26.20;99.90
52381;DHT22;38310;52.796;6.942;2023-08-06T11:27:23;26.60;99.90
52381;DHT22;38310;52.796;6.942;2023-08-06T11:29:52;26.00;99.90
52381;DHT22;38310;52.796;6.942;2023-08-06T11:32:18;25.70;99.90
52381;DHT22;38310;52.796;6.942;2023-08-06T11:34:44;25.30;99.90
52381;DHT22;38310;52.796;6.942;2023-08-06T11:37:10;25.00;99.90
52381;DHT22;38310;52.796;6.942;2023-08-06T11:39:37;24.70;99.90
52381;DHT22;38310;52.796;6.942;2023-08-06T11:42:07;24.40;99.90
52381;DHT22;38310;52.796;6.942;2023-08-06T11:44:35;24.10;99.90
52381;DHT22;38310;52.796;6.942;2023-08-06T11:47:03;23.90;99.90
52381;DHT22;38310;52.796;6.942;2023-08-06T11:52:20;23.30;99.90
52381;DHT22;38310;52.796;6.942;2023-08-06T11:54:51;23.20;99.90
52381;DHT22;38310;52.796;6.942;2023-08-06T11:57:25;23.10;99.90
52381;DHT22;38310;52.796;6.942;2023-08-06T11:59:50;22.90;99.90
52381;DHT22;38310;52.796;6.942;2023-08-06T12:02:16;22.80;99.90
52381;DHT22;38310;52.796;6.942;2023-08-06T12:05:09;22.80;99.90
52381;DHT22;38310;52.796;6.942;2023-08-06T12:07:42;22.70;99.90
52381;DHT22;38310;52.796;6.942;2023-08-06T12:10:09;22.50;99.90
52381;DHT22;38310;52.796;6.942;2023-08-06T12:12:35;22.50;99.90
52381;DHT22;38310;52.796;6.942;2023-08-06T12:15:01;22.40;99.90
52381;DHT22;38310;52.796;6.942;2023-08-06T12:17:27;22.20;99.90
52381;DHT22;38310;52.796;6.942;2023-08-06T12:19:53;22.20;99.90
52381;DHT22;38310;52.796;6.942;2023-08-06T12:22:19;22.10;99.90
52381;DHT22;38310;52.796;6.942;2023-08-06T12:24:46;22.10;99.90
52381;DHT22;38310;52.796;6.942;2023-08-06T12:27:13;22.10;99.90
52381;DHT22;38310;52.796;6.942;2023-08-06T12:29:43;22.10;99.90
52381;DHT22;38310;52.796;6.942;2023-08-06T12:32:10;22.10;99.90
52381;DHT22;38310;52.796;6.942;2023-08-06T12:34:37;22.10;99.90
52381;DHT22;38310;52.796;6.942;2023-08-06T12:37:03;22.20;99.90
52381;DHT22;38310;52.796;6.942;2023-08-06T12:39:29;22.20;99.90
52381;DHT22;38310;52.796;6.942;2023-08-06T12:41:55;22.30;99.90
52381;DHT22;38310;52.796;6.942;2023-08-06T12:44:23;22.30;99.90
52381;DHT22;38310;52.796;6.942;2023-08-06T12:46:50;22.30;99.90
52381;DHT22;38310;52.796;6.942;2023-08-06T12:49:16;22.40;99.90
52381;DHT22;38310;52.796;6.942;2023-08-06T12:51:42;22.40;99.90
52381;DHT22;38310;52.796;6.942;2023-08-06T12:54:08;22.50;99.90
52381;DHT22;38310;52.796;6.942;2023-08-06T12:56:34;22.50;99.90
52381;DHT22;38310;52.796;6.942;2023-08-06T12:59:00;22.50;99.90
52381;DHT22;38310;52.796;6.942;2023-08-06T13:01:25;22.30;99.90
52381;DHT22;38310;52.796;6.942;2023-08-06T13:03:51;22.40;99.90
52381;DHT22;38310;52.796;6.942;2023-08-06T13:06:17;22.20;99.90
52381;DHT22;38310;52.796;6.942;2023-08-06T13:08:43;22.30;99.90
52381;DHT22;38310;52.796;6.942;2023-08-06T13:11:09;22.20;99.90
52381;DHT22;38310;52.796;6.942;2023-08-06T13:13:35;22.10;99.90
52381;DHT22;38310;52.796;6.942;2023-08-06T13:16:01;22.00;99.90
52381;DHT22;38310;52.796;6.942;2023-08-06T13:18:26;21.90;99.90
52381;DHT22;38310;52.796;6.942;2023-08-06T13:20:54;22.00;99.90
52381;DHT22;38310;52.796;6.942;2023-08-06T13:23:20;21.90;99.90
52381;DHT22;38310;52.796;6.942;2023-08-06T13:25:46;21.70;99.90
52381;DHT22;38310;52.796;6.942;2023-08-06T13:28:12;21.60;99.90
52381;DHT22;38310;52.796;6.942;2023-08-06T13:30:39;21.40;99.90
52381;DHT22;38310;52.796;6.942;2023-08-06T13:33:09;21.30;99.90
52381;DHT22;38310;52.796;6.942;2023-08-06T13:35:35;21.30;99.90
52381;DHT22;38310;52.796;6.942;2023-08-06T13:38:00;21.20;99.90
52381;DHT22;38310;52.796;6.942;2023-08-06T13:40:29;21.20;99.90
52381;DHT22;38310;52.796;6.942;2023-08-06T13:42:55;21.10;99.90
52381;DHT22;38310;52.796;6.942;2023-08-06T13:45:21;21.10;99.90
52381;DHT22;38310;52.796;6.942;2023-08-06T13:47:47;21.00;99.90
52381;DHT22;38310;52.796;6.942;2023-08-06T13:50:13;21.00;99.90
52381;DHT22;38310;52.796;6.942;2023-08-06T13:52:39;20.90;99.90
52381;DHT22;38310;52.796;6.942;2023-08-06T13:55:05;20.80;99.90
52381;DHT22;38310;52.796;6.942;2023-08-06T13:57:32;20.80;99.90
52381;DHT22;38310;52.796;6.942;2023-08-06T13:59:57;20.70;99.90
52381;DHT22;38310;52.796;6.942;2023-08-06T14:02:23;20.70;99.90
52381;DHT22;38310;52.796;6.942;2023-08-06T14:04:49;20.60;99.90
52381;DHT22;38310;52.796;6.942;2023-08-06T14:07:15;20.60;99.90
52381;DHT22;38310;52.796;6.942;2023-08-06T14:09:40;20.50;99.90
52381;DHT22;38310;52.796;6.942;2023-08-06T14:12:07;20.50;99.90
52381;DHT22;38310;52.796;6.942;2023-08-06T14:14:33;20.40;99.90
52381;DHT22;38310;52.796;6.942;2023-08-06T14:17:00;20.40;99.90
52381;DHT22;38310;52.796;6.942;2023-08-06T14:19:26;20.30;99.90
52381;DHT22;38310;52.796;6.942;2023-08-06T14:21:52;20.30;99.90
52381;DHT22;38310;52.796;6.942;2023-08-06T14:24:18;20.30;99.90
52381;DHT22;38310;52.796;6.942;2023-08-06T14:26:44;20.20;99.90
52381;DHT22;38310;52.796;6.942;2023-08-06T14:29:10;20.20;99.90
52381;DHT22;38310;52.796;6.942;2023-08-06T14:31:35;20.20;99.90
52381;DHT22;38310;52.796;6.942;2023-08-06T14:34:01;20.10;99.90
52381;DHT22;38310;52.796;6.942;2023-08-06T14:36:27;20.00;99.90
52381;DHT22;38310;52.796;6.942;2023-08-06T14:38:53;20.00;99.90
52381;DHT22;38310;52.796;6.942;2023-08-06T14:41:18;20.00;99.90
52381;DHT22;38310;52.796;6.942;2023-08-06T14:43:44;19.90;99.90
52381;DHT22;38310;52.796;6.942;2023-08-06T14:46:10;19.80;99.90
52381;DHT22;38310;52.796;6.942;2023-08-06T14:48:36;19.70;99.90
52381;DHT22;38310;52.796;6.942;2023-08-06T14:51:02;19.60;99.90
52381;DHT22;38310;52.796;6.942;2023-08-06T14:53:27;19.50;99.90
52381;DHT22;38310;52.796;6.942;2023-08-06T14:55:54;19.50;99.90
52381;DHT22;38310;52.796;6.942;2023-08-06T14:58:20;19.50;99.90
52381;DHT22;38310;52.796;6.942;2023-08-06T15:00:45;19.50;99.90
52381;DHT22;38310;52.796;6.942;2023-08-06T15:03:11;19.50;99.90
52381;DHT22;38310;52.796;6.942;2023-08-06T15:05:37;19.40;99.90
52381;DHT22;38310;52.796;6.942;2023-08-06T15:08:03;19.50;99.90
52381;DHT22;38310;52.796;6.942;2023-08-06T15:10:28;19.50;99.90
52381;DHT22;38310;52.796;6.942;2023-08-06T15:12:54;19.50;99.90
52381;DHT22;38310;52.796;6.942;2023-08-06T15:15:21;19.50;99.90
52381;DHT22;38310;52.796;6.942;2023-08-06T15:17:47;19.50;99.90
52381;DHT22;38310;52.796;6.942;2023-08-06T15:20:13;19.60;99.90
52381;DHT22;38310;52.796;6.942;2023-08-06T15:22:39;19.60;99.90
52381;DHT22;38310;52.796;6.942;2023-08-06T15:25:05;19.70;99.90
52381;DHT22;38310;52.796;6.942;2023-08-06T15:27:31;19.70;99.90
52381;DHT22;38310;52.796;6.942;2023-08-06T15:29:58;19.70;99.90
52381;DHT22;38310;52.796;6.942;2023-08-06T15:32:24;19.70;99.90
52381;DHT22;38310;52.796;6.942;2023-08-06T15:34:51;19.80;99.90
52381;DHT22;38310;52.796;6.942;2023-08-06T15:37:16;19.80;99.90
52381;DHT22;38310;52.796;6.942;2023-08-06T15:39:43;19.90;99.90